createdAt,value
2022-11-29T00:01:23.868Z,100406.94
2022-11-29T00:03:52.321Z,100400.63
2022-11-29T00:06:27.206Z,100401.94
2022-11-29T00:08:57.061Z,100402.41
2022-11-29T00:11:45.596Z,100389.94
2022-11-29T00:14:15.910Z,100388.41
2022-11-29T00:16:43.416Z,100382.84
2022-11-29T00:19:12.225Z,100377.34
2022-11-29T00:21:39.894Z,100375.63
2022-11-29T00:24:07.396Z,100370.44
2022-11-29T00:26:34.891Z,100376.03
2022-11-29T00:29:03.544Z,100373.44
2022-11-29T00:31:32.769Z,100372.81
2022-11-29T00:34:02.948Z,100373.19
2022-11-29T00:36:31.105Z,100365.69
2022-11-29T00:38:58.805Z,100365.97
2022-11-29T00:41:26.187Z,100377.81
2022-11-29T00:43:54.082Z,100367.34
2022-11-29T00:46:21.505Z,100368.69
2022-11-29T00:48:48.847Z,100375.06
2022-11-29T00:51:16.465Z,100364.56
2022-11-29T00:53:43.816Z,100368.34
2022-11-29T00:56:11.216Z,100363.44
2022-11-29T00:58:38.872Z,100361.44
2022-11-29T01:01:06.227Z,100363.25
2022-11-29T01:03:34.124Z,100364.62
2022-11-29T01:06:04.303Z,100357.12
2022-11-29T01:08:31.904Z,100357.66
2022-11-29T01:11:07.803Z,100351.19
2022-11-29T01:13:35.735Z,100358.78
2022-11-29T01:16:04.017Z,100358.50
2022-11-29T01:18:31.651Z,100357.22
2022-11-29T01:21:01.626Z,100363.47
2022-11-29T01:23:29.451Z,100350.47
2022-11-29T01:26:20.774Z,100357.62
2022-11-29T01:28:50.211Z,100358.50
2022-11-29T01:31:22.324Z,100352.22
2022-11-29T01:33:53.923Z,100354.25
2022-11-29T01:36:21.277Z,100355.56
2022-11-29T01:38:48.606Z,100349.44
2022-11-29T01:41:20.587Z,100350.25
2022-11-29T01:44:03.406Z,100346.59
2022-11-29T01:46:44.886Z,100347.41
2022-11-29T01:49:37.246Z,100346.59
2022-11-29T01:52:33.863Z,100340.94
2022-11-29T01:55:04.764Z,100337.38
2022-11-29T01:57:34.136Z,100344.41
2022-11-29T02:00:08.737Z,100348.97
2022-11-29T02:02:56.430Z,100342.56
2022-11-29T02:05:25.139Z,100344.97
2022-11-29T02:07:54.375Z,100343.78
2022-11-29T02:10:26.146Z,100343.88
2022-11-29T02:13:11.049Z,100344.31
2022-11-29T02:16:17.520Z,100348.25
2022-11-29T02:19:00.167Z,100346.03
2022-11-29T02:21:42.657Z,100355.22
2022-11-29T02:24:45.333Z,100356.31
2022-11-29T02:27:24.580Z,100351.91
2022-11-29T02:30:20.759Z,100353.00
2022-11-29T02:33:06.232Z,100354.66
2022-11-29T02:35:49.065Z,100361.78
2022-11-29T02:38:21.974Z,100366.72
2022-11-29T02:40:52.361Z,100363.22
2022-11-29T02:43:37.722Z,100368.19
2022-11-29T02:46:17.774Z,100367.44
2022-11-29T02:48:53.877Z,100364.91
2022-11-29T02:51:39.398Z,100367.03
2022-11-29T02:54:08.847Z,100369.19
2022-11-29T02:56:53.918Z,100368.75
2022-11-29T02:59:36.756Z,100359.94
2022-11-29T03:02:29.325Z,100357.69
2022-11-29T03:05:34.393Z,100365.06
2022-11-29T03:08:29.369Z,100354.72
2022-11-29T03:11:10.155Z,100353.91
2022-11-29T03:13:59.153Z,100353.41
2022-11-29T03:16:39.719Z,100360.97
2022-11-29T03:19:28.669Z,100365.47
2022-11-29T03:22:12.398Z,100364.19
2022-11-29T03:24:58.406Z,100369.97
2022-11-29T03:27:31.990Z,100373.25
2022-11-29T03:30:04.638Z,100367.25
2022-11-29T03:32:54.810Z,100365.84
2022-11-29T03:35:41.648Z,100364.56
2022-11-29T03:38:20.783Z,100366.97
2022-11-29T03:40:55.186Z,100367.69
2022-11-29T03:43:27.994Z,100373.78
2022-11-29T03:46:02.593Z,100373.59
2022-11-29T03:48:48.930Z,100367.81
2022-11-29T03:51:20.888Z,100375.81
2022-11-29T03:54:04.281Z,100384.56
2022-11-29T03:56:37.949Z,100386.69
2022-11-29T03:59:39.494Z,100389.66
2022-11-29T04:02:10.004Z,100382.50
2022-11-29T04:05:26.908Z,100387.47
2022-11-29T04:08:02.117Z,100388.81
2022-11-29T04:11:11.453Z,100394.97
2022-11-29T04:14:20.792Z,100385.22
2022-11-29T04:17:22.350Z,100390.00
2022-11-29T04:20:27.963Z,100390.03
2022-11-29T04:23:14.253Z,100387.84
2022-11-29T04:26:23.601Z,100390.00
2022-11-29T04:28:54.190Z,100394.53
2022-11-29T04:31:33.479Z,100395.97
2022-11-29T04:34:12.873Z,100391.59
2022-11-29T04:37:07.839Z,100389.03
2022-11-29T04:39:44.729Z,100389.19
2022-11-29T04:42:14.996Z,100392.31
2022-11-29T04:45:03.920Z,100392.66
2022-11-29T04:48:27.065Z,100391.44
2022-11-29T04:51:16.232Z,100402.56
2022-11-29T04:54:06.313Z,100402.22
2022-11-29T04:57:01.661Z,100411.50
2022-11-29T04:59:48.710Z,100421.16
2022-11-29T05:02:37.785Z,100418.31
2022-11-29T05:05:31.139Z,100422.75
2022-11-29T05:08:36.427Z,100426.09
2022-11-29T05:11:16.272Z,100427.81
2022-11-29T05:14:22.479Z,100425.88
2022-11-29T05:17:26.345Z,100423.56
2022-11-29T05:20:13.599Z,100420.84
2022-11-29T05:22:58.735Z,100430.63
2022-11-29T05:25:49.397Z,100428.38
2022-11-29T05:28:26.169Z,100431.16
2022-11-29T05:31:08.949Z,100433.84
2022-11-29T05:34:13.820Z,100435.59
2022-11-29T05:36:53.490Z,100438.00
2022-11-29T05:39:56.183Z,100432.00
2022-11-29T05:42:42.426Z,100441.72
2022-11-29T05:45:25.926Z,100435.22
2022-11-29T05:48:03.517Z,100437.50
2022-11-29T05:50:33.256Z,100442.97
2022-11-29T05:53:26.062Z,100436.81
2022-11-29T05:56:30.071Z,100442.69
2022-11-29T05:59:03.872Z,100446.53
2022-11-29T06:01:52.894Z,100442.31
2022-11-29T06:04:28.822Z,100455.69
2022-11-29T06:07:15.058Z,100447.06
2022-11-29T06:09:48.735Z,100445.22
2022-11-29T06:12:21.360Z,100455.72
2022-11-29T06:15:27.941Z,100453.16
2022-11-29T06:18:01.109Z,100452.28
2022-11-29T06:20:44.022Z,100458.44
2022-11-29T06:23:11.210Z,100464.94
2022-11-29T06:26:08.733Z,100472.94
2022-11-29T06:28:54.924Z,100473.59
2022-11-29T06:31:34.243Z,100470.87
2022-11-29T06:34:30.955Z,100466.53
2022-11-29T06:37:14.349Z,100476.28
2022-11-29T06:39:42.059Z,100465.72
2022-11-29T06:42:09.858Z,100477.94
2022-11-29T06:44:37.386Z,100479.28
2022-11-29T06:47:15.125Z,100486.25
2022-11-29T06:49:52.490Z,100482.62
2022-11-29T06:52:32.488Z,100479.38
2022-11-29T06:55:14.989Z,100479.84
2022-11-29T06:57:48.130Z,100486.91
2022-11-29T07:00:37.151Z,100489.44
2022-11-29T07:03:39.128Z,100489.00
2022-11-29T07:06:21.894Z,100486.19
2022-11-29T07:08:54.137Z,100494.44
2022-11-29T07:11:22.311Z,100484.91
2022-11-29T07:13:50.002Z,100489.75
2022-11-29T07:16:24.995Z,100489.00
2022-11-29T07:19:21.057Z,100490.66
2022-11-29T07:21:59.000Z,100491.19
2022-11-29T07:24:38.655Z,100487.09
2022-11-29T07:27:12.591Z,100482.84
2022-11-29T07:29:48.864Z,100483.50
2022-11-29T07:32:23.856Z,100491.91
2022-11-29T07:35:16.347Z,100489.47
2022-11-29T07:38:04.315Z,100494.28
2022-11-29T07:40:41.582Z,100492.19
2022-11-29T07:43:22.011Z,100501.13
2022-11-29T07:45:49.886Z,100499.50
2022-11-29T07:48:17.809Z,100494.81
2022-11-29T07:50:45.492Z,100501.44
2022-11-29T07:53:17.582Z,100505.91
2022-11-29T07:55:45.207Z,100501.19
2022-11-29T07:58:14.208Z,100509.03
2022-11-29T08:00:42.411Z,100498.78
2022-11-29T08:03:10.851Z,100508.00
2022-11-29T08:05:38.903Z,100499.06
2022-11-29T08:08:06.852Z,100499.50
2022-11-29T08:10:35.542Z,100498.19
2022-11-29T08:13:02.910Z,100503.53
2022-11-29T08:15:30.337Z,100512.22
2022-11-29T08:17:57.903Z,100500.41
2022-11-29T08:20:25.381Z,100500.09
2022-11-29T08:22:57.697Z,100500.53
2022-11-29T08:25:27.420Z,100503.66
2022-11-29T08:27:55.739Z,100490.44
2022-11-29T08:30:23.477Z,100497.63
2022-11-29T08:32:51.960Z,100492.84
2022-11-29T08:35:20.612Z,100490.38
2022-11-29T08:37:48.055Z,100497.69
2022-11-29T08:40:16.242Z,100489.75
2022-11-29T08:42:43.699Z,100499.94
2022-11-29T08:45:11.451Z,100501.72
2022-11-29T08:47:40.260Z,100494.63
2022-11-29T08:50:16.063Z,100503.84
2022-11-29T08:53:04.270Z,100504.09
2022-11-29T08:55:34.436Z,100502.00
2022-11-29T08:58:04.812Z,100493.19
2022-11-29T09:00:32.616Z,100494.56
2022-11-29T09:03:21.872Z,100502.94
2022-11-29T09:05:49.779Z,100496.03
2022-11-29T09:08:17.120Z,100497.59
2022-11-29T09:10:44.545Z,100496.09
2022-11-29T09:13:12.547Z,100498.63
2022-11-29T09:15:42.481Z,100497.06
2022-11-29T09:18:09.975Z,100488.69
2022-11-29T09:20:37.632Z,100493.00
2022-11-29T09:23:04.963Z,100494.69
2022-11-29T09:25:32.412Z,100492.03
2022-11-29T09:28:02.851Z,100488.94
2022-11-29T09:30:31.570Z,100486.72
2022-11-29T09:33:05.082Z,100489.47
2022-11-29T09:35:33.947Z,100486.53
2022-11-29T09:38:01.511Z,100493.69
2022-11-29T09:40:49.513Z,100483.41
2022-11-29T09:43:35.360Z,100491.97
2022-11-29T09:46:16.084Z,100489.88
2022-11-29T09:48:59.314Z,100482.22
2022-11-29T09:51:50.048Z,100486.06
2022-11-29T09:54:39.504Z,100478.94
2022-11-29T09:57:10.614Z,100473.84
2022-11-29T09:59:43.395Z,100473.50
2022-11-29T10:02:25.349Z,100474.84
2022-11-29T10:04:57.204Z,100473.84
2022-11-29T10:07:30.557Z,100467.97
2022-11-29T10:10:13.040Z,100461.81
2022-11-29T10:12:48.820Z,100459.97
2022-11-29T10:15:25.043Z,100462.38
2022-11-29T10:17:59.272Z,100458.63
2022-11-29T10:20:30.420Z,100449.84
2022-11-29T10:23:04.006Z,100457.72
2022-11-29T10:25:36.142Z,100448.53
2022-11-29T10:28:05.067Z,100443.84
2022-11-29T10:30:34.250Z,100451.00
2022-11-29T10:33:02.608Z,100455.56
2022-11-29T10:35:36.045Z,100450.69
2022-11-29T10:40:59.171Z,100449.72
2022-11-29T10:43:26.808Z,100440.28
2022-11-29T10:45:56.272Z,100434.72
2022-11-29T10:48:31.637Z,100449.16
2022-11-29T10:51:01.176Z,100447.72
2022-11-29T10:53:32.839Z,100443.03
2022-11-29T10:56:01.689Z,100448.22
2022-11-29T10:58:31.581Z,100450.63
2022-11-29T11:01:08.657Z,100439.34
2022-11-29T11:04:07.509Z,100453.19
2022-11-29T11:06:49.504Z,100442.12
2022-11-29T11:09:39.047Z,100440.16
2022-11-29T11:12:16.983Z,100436.53
2022-11-29T11:14:45.380Z,100437.56
2022-11-29T11:17:18.999Z,100438.19
2022-11-29T11:19:56.180Z,100437.75
2022-11-29T11:22:24.443Z,100439.91
2022-11-29T11:25:05.382Z,100437.00
2022-11-29T11:27:40.063Z,100439.69
2022-11-29T11:30:08.400Z,100438.34
2022-11-29T11:32:35.648Z,100434.66
2022-11-29T11:35:02.983Z,100437.28
2022-11-29T11:37:32.481Z,100444.81
2022-11-29T11:40:18.199Z,100440.84
2022-11-29T11:42:46.223Z,100449.06
2022-11-29T11:45:13.589Z,100449.81
2022-11-29T11:47:49.683Z,100446.78
2022-11-29T11:50:59.142Z,100440.87
2022-11-29T11:53:29.830Z,100437.81
2022-11-29T11:56:05.791Z,100450.81
2022-11-29T11:58:47.761Z,100450.06
2022-11-29T12:01:25.211Z,100445.25
2022-11-29T12:03:58.542Z,100447.72
2022-11-29T12:06:29.723Z,100436.66
2022-11-29T12:09:08.495Z,100448.06
2022-11-29T12:12:04.596Z,100447.06
2022-11-29T12:14:53.455Z,100436.97
2022-11-29T12:17:44.288Z,100436.50
2022-11-29T12:20:36.698Z,100432.56
2022-11-29T12:23:12.776Z,100436.53
2022-11-29T12:25:49.656Z,100437.56
2022-11-29T12:28:20.821Z,100432.66
2022-11-29T12:31:16.724Z,100423.47
2022-11-29T12:33:50.007Z,100431.13
2022-11-29T12:36:32.266Z,100432.63
2022-11-29T12:39:19.284Z,100424.75
2022-11-29T12:42:09.818Z,100424.44
2022-11-29T12:44:52.513Z,100424.97
2022-11-29T12:47:39.302Z,100423.41
2022-11-29T12:50:28.637Z,100419.16
2022-11-29T12:53:16.901Z,100424.53
2022-11-29T12:55:53.556Z,100415.63
2022-11-29T12:58:52.190Z,100419.91
2022-11-29T13:01:46.277Z,100409.63
2022-11-29T13:04:21.491Z,100414.69
2022-11-29T13:07:26.934Z,100411.84
2022-11-29T13:10:00.334Z,100411.28
2022-11-29T13:12:42.286Z,100417.09
2022-11-29T13:15:21.872Z,100416.00
2022-11-29T13:17:58.937Z,100414.22
2022-11-29T13:20:45.682Z,100415.81
2022-11-29T13:24:17.794Z,100419.69
2022-11-29T13:26:45.673Z,100422.03
2022-11-29T13:29:17.569Z,100421.62
2022-11-29T13:31:46.607Z,100428.03
2022-11-29T13:34:22.625Z,100425.72
2022-11-29T13:37:20.455Z,100418.59
2022-11-29T13:39:50.570Z,100419.03
2022-11-29T13:42:45.275Z,100422.56
2022-11-29T13:45:26.995Z,100425.25
2022-11-29T13:47:58.376Z,100431.38
2022-11-29T13:50:42.479Z,100425.97
2022-11-29T13:53:17.432Z,100433.56
2022-11-29T13:55:50.381Z,100431.22
2022-11-29T13:58:33.293Z,100430.22
2022-11-29T14:01:01.659Z,100427.47
2022-11-29T14:03:48.951Z,100428.59
2022-11-29T14:06:23.733Z,100429.87
2022-11-29T14:11:55.251Z,100433.19
2022-11-29T14:14:27.597Z,100432.91
2022-11-29T14:16:59.976Z,100426.66
2022-11-29T14:19:35.209Z,100428.09
2022-11-29T14:22:02.535Z,100429.87
2022-11-29T14:24:32.421Z,100434.50
2022-11-29T14:27:23.112Z,100427.84
2022-11-29T14:29:55.117Z,100437.88
2022-11-29T14:32:51.076Z,100425.62
2022-11-29T14:35:34.011Z,100419.50
2022-11-29T14:38:19.411Z,100428.38
2022-11-29T14:41:00.916Z,100425.34
2022-11-29T14:43:33.391Z,100418.19
2022-11-29T14:46:16.401Z,100427.16
2022-11-29T14:48:56.149Z,100431.25
2022-11-29T14:51:25.691Z,100436.91
2022-11-29T14:54:14.597Z,100431.75
2022-11-29T14:56:44.493Z,100432.72
2022-11-29T14:59:49.443Z,100433.00
2022-11-29T15:02:20.151Z,100425.06
2022-11-29T15:04:49.273Z,100433.56
2022-11-29T15:07:20.261Z,100427.63
2022-11-29T15:09:49.732Z,100426.44
2022-11-29T15:12:20.512Z,100431.91
2022-11-29T15:15:13.027Z,100420.91
2022-11-29T15:17:53.252Z,100417.31
2022-11-29T15:20:42.718Z,100409.34
2022-11-29T15:23:18.388Z,100418.12
2022-11-29T15:25:50.832Z,100415.91
2022-11-29T15:28:23.770Z,100410.72
2022-11-29T15:31:02.672Z,100409.53
2022-11-29T15:33:30.782Z,100418.97
2022-11-29T15:36:06.070Z,100418.41
2022-11-29T15:38:45.603Z,100415.28
2022-11-29T15:41:19.541Z,100419.50
2022-11-29T15:43:50.538Z,100406.28
2022-11-29T15:46:24.404Z,100410.09
2022-11-29T15:48:52.025Z,100407.88
2022-11-29T15:51:30.607Z,100415.81
2022-11-29T15:54:12.108Z,100419.19
2022-11-29T15:56:47.265Z,100422.28
2022-11-29T15:59:26.890Z,100429.78
2022-11-29T16:01:57.342Z,100426.00
2022-11-29T16:04:27.411Z,100428.69
2022-11-29T16:06:55.738Z,100431.19
2022-11-29T16:09:31.619Z,100435.16
2022-11-29T16:12:00.561Z,100429.12
2022-11-29T16:14:28.410Z,100439.12
2022-11-29T16:16:57.965Z,100433.97
2022-11-29T16:19:28.585Z,100442.81
2022-11-29T16:22:12.977Z,100435.12
2022-11-29T16:25:14.084Z,100434.19
2022-11-29T16:27:41.588Z,100435.91
2022-11-29T16:30:21.804Z,100433.50
2022-11-29T16:32:58.728Z,100442.12
2022-11-29T16:35:28.690Z,100442.81
2022-11-29T16:37:56.806Z,100440.94
2022-11-29T16:40:26.677Z,100440.13
2022-11-29T16:43:06.673Z,100444.47
2022-11-29T16:45:42.632Z,100453.00
2022-11-29T16:48:22.596Z,100455.78
2022-11-29T16:51:08.370Z,100465.31
2022-11-29T16:53:38.452Z,100459.28
2022-11-29T16:56:06.150Z,100459.03
2022-11-29T16:58:36.457Z,100461.97
2022-11-29T17:01:29.367Z,100457.63
2022-11-29T17:03:59.799Z,100469.09
2022-11-29T17:06:30.095Z,100470.03
2022-11-29T17:08:59.097Z,100483.25
2022-11-29T17:11:27.297Z,100475.38
2022-11-29T17:13:54.696Z,100476.16
2022-11-29T17:16:23.785Z,100485.66
2022-11-29T17:18:52.914Z,100477.87
2022-11-29T17:21:25.110Z,100477.59
2022-11-29T17:23:53.611Z,100473.09
2022-11-29T17:26:22.590Z,100479.34
2022-11-29T17:28:52.366Z,100479.44
2022-11-29T17:31:22.645Z,100483.41
2022-11-29T17:33:59.699Z,100483.47
2022-11-29T17:36:28.495Z,100482.69
2022-11-29T17:38:57.089Z,100482.91
2022-11-29T17:41:26.361Z,100477.06
2022-11-29T17:43:55.618Z,100479.56
2022-11-29T17:46:26.256Z,100485.16
2022-11-29T17:48:54.746Z,100490.72
2022-11-29T17:51:50.741Z,100480.34
2022-11-29T17:54:13.003Z,100485.84
2022-11-29T17:56:40.605Z,100480.87
2022-11-29T17:59:08.628Z,100482.69
2022-11-29T18:01:37.346Z,100473.72
2022-11-29T18:04:06.837Z,100479.28
2022-11-29T18:06:37.462Z,100481.31
2022-11-29T18:09:06.896Z,100484.16
2022-11-29T18:11:46.331Z,100475.28
2022-11-29T18:14:23.207Z,100483.16
2022-11-29T18:16:50.901Z,100476.84
2022-11-29T18:19:21.153Z,100480.28
2022-11-29T18:21:50.943Z,100475.47
2022-11-29T18:24:19.445Z,100483.56
2022-11-29T18:26:47.740Z,100482.25
2022-11-29T18:29:16.894Z,100485.94
2022-11-29T18:31:46.291Z,100491.06
2022-11-29T18:34:16.142Z,100492.84
2022-11-29T18:36:46.461Z,100499.28
2022-11-29T18:39:24.445Z,100502.84
2022-11-29T18:41:52.531Z,100498.78
2022-11-29T18:44:22.158Z,100504.34
2022-11-29T18:46:50.264Z,100493.75
2022-11-29T18:49:18.974Z,100501.03
2022-11-29T18:51:48.006Z,100492.38
2022-11-29T18:54:18.489Z,100496.00
2022-11-29T18:56:47.185Z,100499.19
2022-11-29T18:59:18.094Z,100495.00
2022-11-29T19:01:48.288Z,100495.06
2022-11-29T19:04:19.168Z,100480.09
2022-11-29T19:06:47.794Z,100484.91
2022-11-29T19:09:18.220Z,100486.94
2022-11-29T19:11:46.393Z,100481.78
2022-11-29T19:14:14.173Z,100489.22
2022-11-29T19:16:45.092Z,100489.91
2022-11-29T19:19:13.604Z,100494.19
2022-11-29T19:21:41.802Z,100490.00
2022-11-29T19:24:14.551Z,100498.00
2022-11-29T19:26:44.947Z,100497.72
2022-11-29T19:29:14.274Z,100496.50
2022-11-29T19:31:43.827Z,100497.50
2022-11-29T19:34:12.249Z,100496.66
2022-11-29T19:36:43.959Z,100504.25
2022-11-29T19:39:15.528Z,100498.78
2022-11-29T19:41:46.160Z,100506.31
2022-11-29T19:44:14.734Z,100497.47
2022-11-29T19:46:46.491Z,100505.06
2022-11-29T19:49:14.752Z,100496.09
2022-11-29T19:51:42.699Z,100495.91
2022-11-29T19:54:12.311Z,100500.16
2022-11-29T19:56:40.811Z,100493.91
2022-11-29T19:59:08.875Z,100488.72
2022-11-29T20:01:41.507Z,100498.94
2022-11-29T20:04:12.447Z,100493.41
2022-11-29T20:06:40.774Z,100496.09
2022-11-29T20:09:09.129Z,100489.56
2022-11-29T20:11:40.309Z,100495.84
2022-11-29T20:14:08.905Z,100490.91
2022-11-29T20:16:38.738Z,100486.94
2022-11-29T20:19:12.193Z,100490.09
2022-11-29T20:21:46.249Z,100493.41
2022-11-29T20:24:15.167Z,100490.03
2022-11-29T20:26:46.107Z,100488.16
2022-11-29T20:29:15.492Z,100489.81
2022-11-29T20:31:49.924Z,100493.09
2022-11-29T20:34:19.786Z,100485.34
2022-11-29T20:37:13.561Z,100488.28
2022-11-29T20:39:55.165Z,100481.91
2022-11-29T20:42:29.745Z,100490.09
2022-11-29T20:45:03.580Z,100484.34
2022-11-29T20:47:41.494Z,100484.63
2022-11-29T20:50:15.012Z,100478.03
2022-11-29T20:52:52.325Z,100478.25
2022-11-29T20:55:21.286Z,100484.69
2022-11-29T20:57:50.330Z,100488.53
2022-11-29T21:00:18.771Z,100481.56
2022-11-29T21:02:46.767Z,100482.03
2022-11-29T21:05:16.712Z,100483.41
2022-11-29T21:07:45.871Z,100485.75
2022-11-29T21:10:15.490Z,100482.03
2022-11-29T21:12:45.638Z,100482.28
2022-11-29T21:15:14.196Z,100489.03
2022-11-29T21:17:43.005Z,100481.25
2022-11-29T21:20:18.317Z,100480.28
2022-11-29T21:22:54.168Z,100482.72
2022-11-29T21:25:31.373Z,100477.28
2022-11-29T21:28:00.916Z,100482.78
2022-11-29T21:30:28.372Z,100486.62
2022-11-29T21:32:56.003Z,100484.13
2022-11-29T21:35:23.933Z,100489.69
2022-11-29T21:37:51.566Z,100477.72
2022-11-29T21:40:19.008Z,100488.06
2022-11-29T21:42:46.730Z,100486.44
2022-11-29T21:45:15.794Z,100487.19
2022-11-29T21:47:44.086Z,100494.69
2022-11-29T21:50:13.432Z,100487.00
2022-11-29T21:52:43.995Z,100490.25
2022-11-29T21:55:11.586Z,100486.38
2022-11-29T21:57:38.985Z,100490.22
2022-11-29T22:00:07.380Z,100492.31
2022-11-29T22:02:34.716Z,100486.56
2022-11-29T22:05:02.325Z,100486.47
2022-11-29T22:07:29.962Z,100492.44
2022-11-29T22:09:57.319Z,100480.22
2022-11-29T22:12:34.076Z,100481.31
2022-11-29T22:15:02.127Z,100481.84
2022-11-29T22:17:29.700Z,100483.69
2022-11-29T22:19:57.053Z,100482.44
2022-11-29T22:22:27.966Z,100476.56
2022-11-29T22:24:55.896Z,100480.59
2022-11-29T22:27:23.242Z,100473.56
2022-11-29T22:29:51.608Z,100481.25
2022-11-29T22:32:19.179Z,100478.28
2022-11-29T22:34:46.672Z,100482.88
2022-11-29T22:37:14.137Z,100479.62
2022-11-29T22:39:41.841Z,100485.06
2022-11-29T22:42:09.402Z,100475.03
2022-11-29T22:44:36.713Z,100483.47
2022-11-29T22:47:04.401Z,100465.22
2022-11-29T22:49:33.267Z,100480.53
2022-11-29T22:52:00.696Z,100474.16
2022-11-29T22:54:28.299Z,100467.22
2022-11-29T22:56:55.614Z,100467.94
2022-11-29T22:59:23.182Z,100466.91
2022-11-29T23:01:50.777Z,100457.00
2022-11-29T23:04:18.119Z,100461.72
2022-11-29T23:06:46.239Z,100456.09
2022-11-29T23:09:16.884Z,100449.50
2022-11-29T23:11:45.196Z,100462.78
2022-11-29T23:14:12.728Z,100458.06
2022-11-29T23:16:40.384Z,100454.16
2022-11-29T23:19:07.767Z,100459.59
2022-11-29T23:21:37.245Z,100451.50
2022-11-29T23:24:04.938Z,100456.56
2022-11-29T23:26:38.910Z,100449.50
2022-11-29T23:29:09.011Z,100448.62
2022-11-29T23:31:36.364Z,100454.03
2022-11-29T23:34:03.905Z,100451.19
2022-11-29T23:36:31.748Z,100448.41
2022-11-29T23:38:59.109Z,100445.16
2022-11-29T23:41:26.448Z,100444.13
2022-11-29T23:43:54.397Z,100447.09
2022-11-29T23:46:23.845Z,100446.25
2022-11-29T23:48:52.141Z,100447.31
2022-11-29T23:51:20.183Z,100451.97
2022-11-29T23:53:53.773Z,100445.78
2022-11-29T23:56:21.824Z,100446.91
2022-11-29T23:58:49.332Z,100449.94
